createdAt,value
2018-08-10T05:02:50.599Z,4.10
2018-08-10T05:07:53.933Z,4.33
2018-08-10T05:12:58.026Z,3.10
2018-08-10T05:18:01.357Z,3.07
2018-08-10T05:23:04.693Z,3.90
2018-08-10T05:28:08.814Z,1.80
2018-08-10T05:33:13.201Z,3.13
2018-08-10T05:38:16.539Z,1.67
2018-08-10T05:43:19.867Z,3.10
2018-08-10T05:48:23.193Z,2.70
2018-08-10T05:53:27.285Z,2.53
2018-08-10T05:58:30.606Z,2.20
2018-08-10T06:03:33.955Z,2.57
2018-08-10T06:08:38.041Z,2.40
2018-08-10T06:13:41.403Z,2.73
2018-08-10T06:18:44.731Z,3.70
2018-08-10T06:23:48.052Z,2.40
2018-08-10T06:28:51.371Z,2.70
2018-08-10T06:33:54.795Z,1.80
2018-08-10T06:38:58.042Z,1.83
2018-08-10T06:44:01.367Z,1.30
2018-08-10T06:49:04.695Z,1.10
2018-08-10T06:54:08.028Z,2.50
2018-08-10T06:59:11.362Z,1.40
2018-08-10T07:04:14.687Z,1.20
2018-08-10T07:09:18.011Z,2.43
2018-08-10T07:14:21.342Z,1.00
2018-08-10T07:19:24.669Z,0.60
2018-08-10T07:24:28.767Z,1.40
2018-08-10T07:29:32.098Z,0.77
2018-08-10T07:34:36.191Z,2.10
2018-08-10T07:39:39.528Z,1.47
2018-08-10T07:44:42.850Z,0.60
2018-08-10T07:49:46.944Z,1.30
2018-08-10T07:54:50.290Z,1.23
2018-08-10T07:59:54.530Z,0.60
2018-08-10T08:04:58.637Z,0.73
2018-08-10T08:10:01.983Z,1.50
2018-08-10T08:15:06.097Z,0.70
2018-08-10T08:20:09.431Z,1.20
2018-08-10T08:25:12.763Z,1.60
2018-08-10T08:30:16.091Z,2.27
2018-08-10T08:35:19.422Z,1.93
2018-08-10T08:40:22.754Z,0.90
2018-08-10T08:45:36.009Z,1.37
2018-08-10T08:50:39.311Z,1.50
2018-08-10T08:55:43.414Z,1.10
2018-08-10T09:00:46.734Z,1.83
2018-08-10T09:05:50.092Z,1.20
2018-08-10T09:10:54.358Z,1.03
2018-08-10T09:15:57.730Z,0.77
2018-08-10T09:21:01.832Z,1.23
2018-08-10T09:26:05.326Z,2.10
2018-08-10T09:31:08.667Z,0.50
2018-08-10T09:36:12.358Z,0.70
2018-08-10T09:41:15.776Z,0.60
2018-08-10T09:46:19.150Z,0.83
2018-08-10T09:51:23.247Z,0.63
2018-08-10T09:56:26.830Z,0.90
2018-08-10T10:01:30.179Z,0.33
2018-08-10T10:06:33.560Z,0.30
2018-08-10T10:11:36.852Z,0.40
2018-08-10T10:16:40.202Z,0.67
2018-08-10T10:21:43.533Z,0.93
2018-08-10T10:26:46.882Z,0.97
2018-08-10T10:31:50.224Z,0.93
2018-08-10T10:36:53.559Z,0.40
2018-08-10T10:41:56.894Z,0.53
2018-08-10T10:47:00.226Z,0.27
2018-08-10T10:52:04.335Z,0.57
2018-08-10T10:57:08.435Z,0.57
2018-08-10T11:02:11.774Z,1.43
2018-08-10T11:07:15.117Z,0.63
2018-08-10T11:12:18.441Z,0.80
2018-08-10T11:17:21.786Z,1.07
2018-08-10T11:22:25.131Z,0.40
2018-08-10T11:27:29.262Z,1.27
2018-08-10T11:32:33.370Z,2.63
2018-08-10T11:37:36.695Z,0.83
2018-08-10T11:42:40.025Z,0.70
2018-08-10T11:47:44.131Z,1.27
2018-08-10T11:52:47.839Z,1.73
2018-08-10T11:57:51.166Z,0.77
2018-08-10T12:02:54.759Z,0.30
2018-08-10T12:07:58.087Z,0.87
2018-08-10T12:13:01.414Z,1.23
2018-08-10T12:18:04.752Z,0.47
2018-08-10T12:23:08.842Z,0.57
2018-08-10T12:28:12.181Z,2.33
2018-08-10T12:33:16.278Z,0.90
2018-08-10T12:38:19.607Z,4.10
2018-08-10T12:43:22.929Z,0.80
2018-08-10T12:48:26.264Z,2.83
2018-08-10T12:53:29.595Z,0.80
2018-08-10T12:58:32.922Z,0.60
2018-08-10T13:03:36.242Z,1.57
2018-08-10T13:08:39.569Z,1.47
2018-08-10T13:13:42.902Z,2.43
2018-08-10T13:18:46.230Z,1.43
2018-08-10T13:23:50.393Z,1.17
2018-08-10T13:28:53.689Z,1.33
2018-08-10T13:33:57.022Z,2.00
2018-08-10T13:39:00.361Z,1.83
2018-08-10T13:44:03.702Z,2.43
2018-08-10T13:49:07.037Z,2.17
2018-08-10T13:54:10.371Z,3.43
2018-08-10T13:59:13.714Z,2.60
2018-08-10T14:04:17.038Z,2.17
2018-08-10T14:09:20.375Z,1.50
2018-08-10T14:14:24.475Z,2.13
2018-08-10T14:19:27.807Z,1.77
2018-08-10T14:24:31.894Z,3.53
2018-08-10T14:29:35.222Z,2.50
2018-08-10T14:34:38.760Z,1.80
2018-08-10T14:39:42.462Z,3.40
2018-08-10T14:44:46.954Z,4.13
2018-08-10T14:49:50.864Z,3.70
2018-08-10T14:54:54.593Z,1.97
2018-08-10T14:59:58.323Z,2.67
2018-08-10T15:05:02.545Z,1.40
2018-08-10T15:10:07.208Z,3.40
2018-08-10T15:15:10.912Z,3.83
2018-08-10T15:20:14.756Z,2.10
2018-08-10T15:25:18.253Z,1.70
2018-08-10T15:30:21.749Z,2.03
2018-08-10T15:35:26.075Z,5.40
2018-08-10T15:40:30.601Z,2.33
2018-08-10T15:45:34.447Z,2.03
2018-08-10T15:50:38.100Z,2.40
2018-08-10T15:55:45.609Z,2.87
2018-08-10T16:00:49.176Z,1.93
2018-08-10T16:05:52.986Z,5.40
2018-08-10T16:10:59.614Z,1.73
2018-08-10T16:16:03.141Z,3.30
2018-08-10T16:21:07.622Z,2.53
2018-08-10T16:26:12.230Z,1.83
2018-08-10T16:31:15.765Z,1.80
2018-08-10T16:36:24.193Z,1.40
2018-08-10T16:41:28.055Z,2.30
2018-08-10T16:46:37.163Z,1.83
2018-08-10T16:51:41.192Z,1.50
2018-08-10T16:56:48.279Z,1.23
2018-08-10T17:01:51.903Z,1.67
2018-08-10T17:06:55.738Z,5.23
2018-08-10T17:11:59.560Z,5.10
2018-08-10T17:17:03.337Z,6.23
2018-08-10T17:22:07.092Z,2.53
2018-08-10T17:27:10.683Z,2.33
2018-08-10T17:32:15.936Z,2.00
2018-08-10T17:37:19.806Z,1.43
2018-08-10T17:42:23.525Z,2.47
2018-08-10T17:47:27.219Z,2.17
2018-08-10T17:52:30.986Z,3.23
2018-08-10T17:57:34.962Z,1.80
2018-08-10T18:02:38.911Z,1.97
2018-08-10T18:07:43.262Z,1.90
2018-08-10T18:12:47.181Z,2.70
2018-08-10T18:17:51.830Z,2.77
2018-08-10T18:22:56.470Z,2.00
2018-08-10T18:28:00.499Z,2.63
2018-08-10T18:33:04.386Z,2.70
2018-08-10T18:38:10.971Z,2.00
2018-08-10T18:43:16.817Z,2.00
2018-08-10T18:48:20.713Z,3.90
2018-08-10T18:53:25.664Z,3.83
2018-08-10T18:58:31.125Z,4.40
2018-08-10T19:03:35.359Z,3.50
2018-08-10T19:08:40.821Z,3.10
2018-08-10T19:13:44.190Z,3.33
2018-08-10T19:18:47.912Z,3.30
2018-08-10T19:23:51.754Z,3.20
2018-08-10T19:28:55.878Z,4.00
2018-08-10T19:34:01.882Z,3.47
2018-08-10T19:39:10.384Z,4.67
2018-08-10T19:44:14.247Z,3.27
2018-08-10T19:49:18.861Z,5.30
2018-08-10T19:54:22.508Z,5.73
2018-08-10T19:59:27.289Z,3.50
2018-08-10T20:04:33.007Z,4.87
2018-08-10T20:09:37.665Z,3.00
2018-08-10T20:14:41.590Z,3.90
2018-08-10T20:19:45.369Z,3.57
2018-08-10T20:24:49.138Z,4.13
2018-08-10T20:29:53.164Z,3.30
2018-08-10T20:34:57.183Z,4.20
2018-08-10T20:40:00.812Z,4.00
2018-08-10T20:45:04.206Z,3.13
2018-08-10T20:50:08.874Z,11.00
2018-08-10T20:55:12.665Z,5.67
2018-08-10T21:00:16.034Z,5.70
2018-08-10T21:05:29.661Z,3.73
2018-08-10T21:10:34.713Z,3.93
2018-08-10T21:15:40.788Z,4.30
2018-08-10T21:20:44.713Z,4.23
2018-08-10T21:25:48.849Z,4.17
2018-08-10T21:30:55.755Z,4.97
2018-08-10T21:36:01.002Z,5.00
2018-08-10T21:41:06.053Z,4.53
2018-08-10T21:46:10.038Z,4.57
2018-08-10T21:51:15.438Z,4.33
2018-08-10T21:56:19.037Z,3.93
2018-08-10T22:01:22.700Z,3.37
2018-08-10T22:06:29.573Z,4.80
2018-08-10T22:11:33.178Z,3.80
2018-08-10T22:22:08.352Z,5.18
